Time;durP1;ratioP1;P1;durP2;ratioP2;P2;SDS_P1;SDS_P2;PMS_P1;PMS_P2;Temp;Humidity;BMP_temperature;BMP_pressure;BME280_temperature;BME280_humidity;BME280_pressure;Samples;Min_cycle;Max_cycle;Signal;HPM_P1;HPM_P2
2021/12/22 00:02:24;;;;;;;;;59.75;45.00;;;;;4.32;57.90;101922.81;5017826;28;45561;-65
2021/12/22 00:04:50;;;;;;;;;48.75;42.00;;;;;4.20;58.33;101921.13;5017244;28;46132;-64
2021/12/22 00:07:16;;;;;;;;;58.50;43.50;;;;;4.12;57.67;101914.38;5017255;28;45356;-64
2021/12/22 00:09:42;;;;;;;;;51.00;40.00;;;;;4.19;58.31;101921.97;5016261;28;45509;-64
2021/12/22 00:12:09;;;;;;;;;49.25;41.50;;;;;4.17;58.35;101920.00;5016864;28;45468;-63
2021/12/22 00:14:35;;;;;;;;;49.00;39.25;;;;;4.18;58.05;101916.56;5017088;28;46303;-64
2021/12/22 00:17:00;;;;;;;;;52.75;41.00;;;;;4.13;58.39;101903.00;5017509;28;45472;-65
2021/12/22 00:19:26;;;;;;;;;36.75;27.25;;;;;4.13;57.71;101902.09;5017101;28;45438;-64
2021/12/22 00:21:51;;;;;;;;;43.25;38.00;;;;;4.16;57.69;101908.53;5017664;28;45314;-64
2021/12/22 00:24:16;;;;;;;;;57.75;37.00;;;;;4.13;57.81;101907.41;5018116;28;45321;-62
2021/12/22 00:26:42;;;;;;;;;49.50;37.75;;;;;4.03;58.02;101885.56;5016631;28;45389;-62
2021/12/22 00:29:08;;;;;;;;;39.75;36.00;;;;;4.06;58.57;101909.59;5017181;28;45334;-62
2021/12/22 00:31:41;;;;;;;;;48.00;37.75;;;;;4.04;58.00;101903.28;5017265;28;45557;-63
2021/12/22 00:34:15;;;;;;;;;43.75;35.50;;;;;3.93;58.23;101913.91;5016522;28;46075;-63
2021/12/22 00:36:41;;;;;;;;;38.50;33.75;;;;;3.92;58.17;101893.56;5016691;28;45546;-63
2021/12/22 00:39:06;;;;;;;;;51.25;35.25;;;;;3.81;58.47;101882.19;5016683;28;45474;-64
2021/12/22 00:41:32;;;;;;;;;52.50;38.25;;;;;3.36;58.63;101812.94;5018702;28;45781;-63
2021/12/22 00:43:57;;;;;;;;;50.75;40.50;;;;;3.90;59.00;101900.47;5016663;28;45288;-62
2021/12/22 00:46:23;;;;;;;;;46.00;35.25;;;;;3.92;58.50;101901.47;5016382;28;45308;-64
2021/12/22 00:48:48;;;;;;;;;46.25;40.00;;;;;3.68;59.33;101870.75;5016687;28;45379;-63
2021/12/22 00:51:13;;;;;;;;;40.50;31.00;;;;;3.85;58.76;101905.41;5015733;28;45459;-62
2021/12/22 00:53:39;;;;;;;;;41.50;35.00;;;;;3.71;59.05;101870.03;5016415;28;45546;-63
2021/12/22 00:56:05;;;;;;;;;47.00;34.75;;;;;3.87;58.45;101909.97;5016446;28;45372;-63
2021/12/22 00:58:30;;;;;;;;;50.00;37.50;;;;;3.84;58.78;101904.50;5016702;28;45459;-64
2021/12/22 01:00:56;;;;;;;;;39.75;31.75;;;;;3.76;58.97;101905.69;5016839;28;45366;-63
2021/12/22 01:03:21;;;;;;;;;47.00;32.50;;;;;3.71;59.45;101906.13;5015490;28;46097;-64
2021/12/22 01:05:47;;;;;;;;;47.00;37.50;;;;;3.76;59.09;101900.38;5016421;28;45433;-66
2021/12/22 01:08:12;;;;;;;;;49.50;39.50;;;;;3.63;58.98;101864.22;5016603;28;45356;-63
2021/12/22 01:10:38;;;;;;;;;47.50;36.25;;;;;3.80;58.95;101907.72;5016980;28;45630;-65
2021/12/22 01:13:06;;;;;;;;;54.00;35.25;;;;;3.77;59.07;101901.28;5015947;28;45520;-65
2021/12/22 01:15:32;;;;;;;;;49.25;34.75;;;;;3.83;59.03;101907.94;5017239;28;45475;-64
2021/12/22 01:18:04;;;;;;;;;45.00;32.50;;;;;3.90;58.40;101905.75;5018521;28;45354;-64
2021/12/22 01:20:39;;;;;;;;;57.75;36.25;;;;;3.86;58.49;101894.94;5017447;28;45500;-64
2021/12/22 01:23:06;;;;;;;;;34.00;30.25;;;;;3.98;58.71;101907.22;5022528;28;45568;-64
2021/12/22 01:25:37;;;;;;;;;39.00;33.25;;;;;3.97;58.27;101897.44;5033896;28;44893;-64
2021/12/22 01:28:02;;;;;;;;;37.00;28.25;;;;;4.07;58.52;101907.84;5033843;28;45141;-64
2021/12/22 01:30:30;;;;;;;;;41.00;32.25;;;;;4.07;58.61;101899.91;5034227;28;45297;-64
2021/12/22 01:32:59;;;;;;;;;51.25;35.00;;;;;4.11;58.71;101898.41;5033284;28;45040;-63
2021/12/22 01:35:28;;;;;;;;;37.50;32.50;;;;;4.06;58.54;101895.47;5034006;28;44865;-64
2021/12/22 01:37:54;;;;;;;;;53.75;35.50;;;;;4.01;58.25;101884.56;5034135;28;44950;-63
2021/12/22 01:40:20;;;;;;;;;53.00;40.25;;;;;3.97;58.78;101889.50;5034102;28;45108;-64
2021/12/22 01:42:46;;;;;;;;;49.25;37.00;;;;;3.83;59.03;101867.38;5030649;28;45183;-64
2021/12/22 01:49:10;;;;;;;;;48.75;38.75;;;;;3.98;58.62;101889.63;5026480;28;45379;-63
2021/12/22 01:51:38;;;;;;;;;43.75;31.75;;;;;3.97;59.52;101892.16;5011260;28;45128;-64
2021/12/22 01:54:28;;;;;;;;;31.75;23.75;;;;;4.03;59.03;101888.22;5011171;28;45951;-65
2021/12/22 01:56:59;;;;;;;;;44.25;37.25;;;;;4.10;58.91;101886.91;5011103;28;44947;-64
2021/12/22 01:59:25;;;;;;;;;41.00;33.75;;;;;4.14;58.41;101886.34;5003299;28;45692;-64
2021/12/22 02:01:51;;;;;;;;;41.50;32.50;;;;;4.13;58.04;101880.94;5010225;28;45357;-63
2021/12/22 02:04:16;;;;;;;;;34.75;23.25;;;;;4.13;58.18;101889.78;5021217;28;46194;-65
2021/12/22 02:06:45;;;;;;;;;41.25;32.25;;;;;4.18;57.74;101892.75;5015549;28;45417;-64
2021/12/22 02:09:14;;;;;;;;;39.75;30.00;;;;;4.18;58.16;101893.66;5017353;28;45322;-64
2021/12/22 02:11:39;;;;;;;;;39.25;31.00;;;;;4.23;57.64;101884.31;5018158;28;45561;-62
2021/12/22 02:14:06;;;;;;;;;29.25;24.75;;;;;4.15;57.56;101882.88;4998966;28;45863;-64
2021/12/22 02:16:36;;;;;;;;;36.00;28.50;;;;;4.04;58.17;101863.63;5003763;28;45496;-63
2021/12/22 02:19:08;;;;;;;;;33.75;27.75;;;;;4.15;58.02;101888.16;4999131;28;45788;-64
2021/12/22 02:21:39;;;;;;;;;45.50;33.00;;;;;4.13;57.89;101883.59;4997740;28;45597;-65
2021/12/22 02:24:05;;;;;;;;;38.75;30.75;;;;;4.02;58.18;101869.59;5001944;28;46350;-66
2021/12/22 02:29:06;;;;;;;;;49.00;31.25;;;;;4.03;58.04;101885.56;4995546;28;45501;-63
2021/12/22 02:31:38;;;;;;;;;36.75;25.50;;;;;3.94;58.15;101869.03;4996218;28;45310;-63
2021/12/22 02:34:06;;;;;;;;;41.75;28.75;;;;;4.07;58.07;101889.34;4995337;28;47179;-63
2021/12/22 02:36:38;;;;;;;;;41.25;26.50;;;;;4.12;58.40;101897.59;4997600;28;45468;-63
2021/12/22 02:39:04;;;;;;;;;40.25;34.75;;;;;4.11;58.44;101890.47;4995398;28;45542;-64
2021/12/22 02:41:31;;;;;;;;;39.00;30.75;;;;;4.17;58.35;101889.19;4995452;28;45415;-62
2021/12/22 02:43:58;;;;;;;;;48.00;35.50;;;;;4.19;57.65;101884.94;4998065;28;47227;-64
2021/12/22 02:46:26;;;;;;;;;44.00;37.75;;;;;4.17;58.09;101880.34;5014492;28;45494;-64
2021/12/22 02:48:52;;;;;;;;;41.00;30.75;;;;;4.10;58.35;101880.72;5014046;28;45641;-62
2021/12/22 02:51:19;;;;;;;;;46.25;36.75;;;;;4.10;58.28;101883.38;5015063;28;45414;-64
2021/12/22 02:54:14;;;;;;;;;43.00;33.75;;;;;4.09;58.52;101871.84;5014699;28;45684;-64
2021/12/22 02:57:20;;;;;;;;;38.50;35.75;;;;;4.13;58.31;101889.78;5014400;28;45742;-64
2021/12/22 03:02:45;;;;;;;;;40.50;34.75;;;;;4.08;58.33;101864.75;5015071;28;45729;-64
2021/12/22 03:04:50;;;;;;;;;41.00;31.50;;;;;4.00;58.34;101855.34;5010346;28;45505;-66
2021/12/22 03:07:17;;;;;;;;;39.25;28.50;;;;;4.09;58.13;101860.38;5014477;28;45743;-65
2021/12/22 03:09:44;;;;;;;;;39.75;25.50;;;;;4.17;57.87;101873.31;5020752;28;45388;-63
2021/12/22 03:12:13;;;;;;;;;35.25;30.00;;;;;4.14;58.13;101867.84;5014408;28;45504;-63
2021/12/22 03:14:39;;;;;;;;;36.50;31.00;;;;;4.23;57.56;101876.38;4994574;28;46167;-65
2021/12/22 03:17:05;;;;;;;;;41.75;33.00;;;;;4.22;57.23;101879.88;4994482;28;45459;-64
2021/12/22 03:19:34;;;;;;;;;56.25;31.25;;;;;4.08;57.54;101840.94;4993329;28;45623;-65
2021/12/22 03:22:03;;;;;;;;;34.50;29.75;;;;;4.18;57.52;101859.28;5003600;28;45582;-64
2021/12/22 03:24:31;;;;;;;;;37.75;34.00;;;;;4.17;57.26;101862.72;5014665;28;45477;-64
2021/12/22 03:27:00;;;;;;;;;49.00;38.25;;;;;4.00;57.68;101876.50;5014787;28;45520;-65
2021/12/22 03:29:30;;;;;;;;;45.25;38.25;;;;;3.81;58.40;101877.84;5014752;28;45486;-66
2021/12/22 03:31:56;;;;;;;;;43.00;33.00;;;;;3.75;58.61;101876.50;5014616;28;45678;-64
2021/12/22 03:34:21;;;;;;;;;39.75;31.75;;;;;3.48;59.09;101836.66;5013789;28;45442;-64
2021/12/22 03:36:47;;;;;;;;;46.50;35.25;;;;;3.61;59.05;101871.13;5014166;28;45599;-64
2021/12/22 03:39:15;;;;;;;;;33.50;23.25;;;;;3.59;59.42;101871.81;5014339;28;45334;-63
2021/12/22 03:41:42;;;;;;;;;36.50;29.25;;;;;3.67;59.27;101870.63;5021640;28;45637;-64
2021/12/22 03:44:08;;;;;;;;;45.00;37.00;;;;;3.73;59.01;101864.88;5013056;28;46161;-63
2021/12/22 03:46:33;;;;;;;;;42.00;33.00;;;;;3.80;58.84;101859.22;5013907;28;45313;-64
2021/12/22 03:48:59;;;;;;;;;44.75;33.50;;;;;3.89;58.90;101865.16;5013912;28;45495;-64
2021/12/22 03:51:26;;;;;;;;;41.75;31.50;;;;;3.88;58.93;101864.25;5014208;28;45572;-64
2021/12/22 03:53:52;;;;;;;;;47.75;32.50;;;;;3.96;58.57;101870.09;5013761;28;46066;-63
2021/12/22 03:56:18;;;;;;;;;33.00;29.00;;;;;3.97;58.41;101868.34;5013819;28;45444;-64
2021/12/22 03:58:43;;;;;;;;;37.00;32.00;;;;;3.97;58.42;101871.00;5013669;28;45434;-64
2021/12/22 04:01:08;;;;;;;;;45.75;37.25;;;;;4.06;59.05;101869.94;5014241;28;45572;-64
2021/12/22 04:03:36;;;;;;;;;27.00;22.25;;;;;3.99;58.80;101865.03;5013869;28;45551;-63
2021/12/22 04:06:03;;;;;;;;;41.75;29.75;;;;;4.02;58.25;101864.31;5013687;28;45439;-65
2021/12/22 04:08:28;;;;;;;;;43.50;37.25;;;;;4.01;58.12;101867.75;5013941;28;45599;-63
2021/12/22 04:10:53;;;;;;;;;53.50;34.00;;;;;3.95;58.26;101854.13;5013241;28;45625;-63
2021/12/22 04:13:20;;;;;;;;;45.50;37.50;;;;;4.01;58.15;101855.47;5012313;28;45459;-64
2021/12/22 04:15:45;;;;;;;;;40.25;34.00;;;;;3.99;58.30;101850.88;5013490;28;45691;-64
2021/12/22 04:18:12;;;;;;;;;50.25;36.50;;;;;3.97;58.32;101845.47;5013328;28;45333;-63
2021/12/22 04:20:38;;;;;;;;;38.00;34.00;;;;;3.95;58.31;101836.50;5013941;28;45377;-65
2021/12/22 04:23:04;;;;;;;;;43.75;37.75;;;;;4.04;58.18;101846.81;5012223;28;47200;-64
2021/12/22 04:25:30;;;;;;;;;40.00;31.00;;;;;4.11;57.90;101841.16;5013889;28;45344;-64
2021/12/22 04:28:07;;;;;;;;;38.50;29.00;;;;;3.97;57.61;101810.19;5013883;28;45484;-64
2021/12/22 04:30:40;;;;;;;;;40.50;28.50;;;;;4.15;57.58;101847.59;5015683;28;45551;-64
2021/12/22 04:33:06;;;;;;;;;30.50;23.25;;;;;4.10;57.39;101852.53;5017365;28;46498;-65
2021/12/22 04:35:32;;;;;;;;;41.25;30.00;;;;;4.15;57.21;101864.34;5016955;28;45295;-64
2021/12/22 04:37:58;;;;;;;;;39.00;20.25;;;;;4.12;56.72;101852.66;5015549;28;45778;-64
2021/12/22 04:40:24;;;;;;;;;35.00;32.00;;;;;4.03;57.15;101859.13;5017087;28;45234;-63
2021/12/22 04:42:49;;;;;;;;;35.25;29.00;;;;;3.91;57.22;101863.56;5024455;28;46438;-63
2021/12/22 04:45:16;;;;;;;;;44.75;33.25;;;;;3.88;57.36;101863.34;5016569;28;45426;-63
2021/12/22 04:47:42;;;;;;;;;33.50;27.00;;;;;3.79;57.56;101866.22;5016780;28;45730;-65
2021/12/22 04:50:13;;;;;;;;;36.75;26.75;;;;;3.72;57.90;101866.59;5017102;28;45390;-63
2021/12/22 04:52:50;;;;;;;;;43.00;33.25;;;;;3.63;57.75;101871.22;5016554;28;46480;-62
2021/12/22 04:55:16;;;;;;;;;52.00;34.75;;;;;3.64;57.83;101870.41;5016749;28;45258;-63
2021/12/22 04:57:41;;;;;;;;;43.75;31.25;;;;;3.70;57.80;101870.88;5016634;28;45709;-62
2021/12/22 05:00:10;;;;;;;;;33.50;29.75;;;;;3.77;58.27;101872.22;5016952;28;45472;-63
2021/12/22 05:02:35;;;;;;;;;26.00;26.00;;;;;3.83;57.86;101870.03;5016323;28;45911;-64
2021/12/22 05:05:01;;;;;;;;;41.00;29.75;;;;;3.91;58.30;101858.28;5016644;28;45547;-65
2021/12/22 05:07:26;;;;;;;;;33.00;27.25;;;;;3.99;57.80;101862.38;5016330;28;45286;-64
2021/12/22 05:09:52;;;;;;;;;40.75;30.25;;;;;4.08;57.51;101855.91;5016625;28;45424;-63
2021/12/22 05:12:17;;;;;;;;;44.00;32.00;;;;;4.16;56.77;101845.03;5016169;28;46206;-63
2021/12/22 05:14:47;;;;;;;;;47.50;35.75;;;;;4.21;57.20;101846.28;5016151;28;45364;-62
2021/12/22 05:17:19;;;;;;;;;37.50;30.75;;;;;4.28;57.02;101838.78;5015391;28;45450;-63
2021/12/22 05:19:45;;;;;;;;;44.00;34.25;;;;;4.12;56.93;101816.53;5016273;28;45331;-64
2021/12/22 05:22:10;;;;;;;;;48.00;40.50;;;;;4.09;57.37;101826.91;5016226;28;45795;-64
2021/12/22 05:24:35;;;;;;;;;33.50;31.75;;;;;4.13;56.53;101830.69;5017033;28;45279;-64
2021/12/22 05:27:01;;;;;;;;;40.75;30.75;;;;;4.08;56.94;101830.38;5016769;28;45296;-64
2021/12/22 05:29:26;;;;;;;;;44.00;33.25;;;;;4.10;56.67;101833.13;5016995;28;45390;-63
2021/12/22 05:31:54;;;;;;;;;50.25;33.75;;;;;4.07;57.23;101836.47;5015838;28;49934;-64
2021/12/22 05:34:21;;;;;;;;;45.75;35.00;;;;;4.11;56.96;101841.16;5015926;28;45450;-64
2021/12/22 05:36:47;;;;;;;;;45.75;26.25;;;;;3.94;57.05;101795.00;5015305;28;45250;-64
2021/12/22 05:39:12;;;;;;;;;41.50;33.00;;;;;4.06;57.03;101821.41;5016237;28;45447;-63
2021/12/22 05:41:38;;;;;;;;;48.00;35.75;;;;;4.03;56.63;101816.81;5014790;28;45646;-65
2021/12/22 05:44:03;;;;;;;;;56.25;33.00;;;;;4.02;56.83;101803.47;5015855;28;45509;-64
2021/12/22 05:46:29;;;;;;;;;37.75;30.00;;;;;4.18;57.50;101838.13;5015878;28;45532;-65
2021/12/22 05:48:54;;;;;;;;;47.75;38.75;;;;;4.16;57.50;101831.81;5015533;28;45236;-63
2021/12/22 05:51:22;;;;;;;;;42.00;35.25;;;;;4.07;57.39;101812.66;5015499;28;45453;-64
2021/12/22 05:53:47;;;;;;;;;31.50;29.00;;;;;4.23;57.18;101835.81;5015552;28;45452;-64
2021/12/22 05:56:13;;;;;;;;;38.00;30.75;;;;;4.24;57.04;101843.84;5015518;28;45867;-64
2021/12/22 05:58:38;;;;;;;;;43.75;31.00;;;;;4.24;57.18;101846.50;5015607;28;45502;-64
2021/12/22 06:01:03;;;;;;;;;42.00;35.75;;;;;4.19;57.19;101842.63;5015510;28;45379;-64
2021/12/22 06:03:29;;;;;;;;;41.75;33.50;;;;;4.16;57.44;101852.97;5017618;28;45472;-64
2021/12/22 06:05:54;;;;;;;;;43.50;32.75;;;;;4.11;57.60;101866.66;5018766;28;45268;-63
2021/12/22 06:08:20;;;;;;;;;48.00;36.00;;;;;4.03;57.52;101859.13;5015575;28;45469;-62
2021/12/22 06:10:45;;;;;;;;;39.50;26.50;;;;;4.04;58.12;101866.25;5014442;28;46036;-64
2021/12/22 06:13:11;;;;;;;;;45.00;35.00;;;;;3.99;57.50;101866.72;5014265;28;45569;-63
2021/12/22 06:15:39;;;;;;;;;40.25;29.25;;;;;3.98;57.47;101855.25;5013690;28;45413;-64
2021/12/22 06:18:05;;;;;;;;;51.50;33.75;;;;;3.90;57.39;101831.72;5016875;28;45713;-63
2021/12/22 06:20:31;;;;;;;;;37.75;33.00;;;;;3.89;57.35;101846.66;5015222;28;46712;-64
2021/12/22 06:22:57;;;;;;;;;38.50;30.75;;;;;3.76;57.61;101846.59;5015128;28;45503;-63
2021/12/22 06:25:24;;;;;;;;;46.50;38.25;;;;;3.55;57.76;101848.59;5013959;28;45517;-62
2021/12/22 06:27:50;;;;;;;;;51.00;36.50;;;;;3.52;58.22;101859.88;5013556;28;45410;-64
2021/12/22 06:30:15;;;;;;;;;49.50;36.50;;;;;3.46;58.35;101836.56;5012499;28;46213;-62
2021/12/22 06:32:41;;;;;;;;;37.00;35.50;;;;;3.57;58.31;101847.91;5015080;28;45711;-64
2021/12/22 06:35:07;;;;;;;;;40.25;36.50;;;;;3.59;58.42;101850.66;5015072;28;45971;-64
2021/12/22 06:37:33;;;;;;;;;33.25;31.25;;;;;3.45;57.85;101849.69;5015301;28;45539;-65
2021/12/22 06:39:58;;;;;;;;;39.50;31.75;;;;;3.43;58.40;101854.84;5014897;28;46524;-63
2021/12/22 06:42:23;;;;;;;;;26.50;24.50;;;;;3.35;58.44;101852.44;5014777;28;45469;-64
2021/12/22 06:44:50;;;;;;;;;49.50;31.25;;;;;3.31;58.71;101848.66;5015544;28;45559;-63
2021/12/22 06:47:15;;;;;;;;;37.50;29.25;;;;;3.34;58.44;101838.31;5023243;28;45487;-63
2021/12/22 06:49:41;;;;;;;;;40.75;30.00;;;;;3.34;57.94;101833.03;5028666;28;45536;-64
2021/12/22 06:52:06;;;;;;;;;46.75;27.75;;;;;3.53;58.02;101853.81;5015148;28;45790;-63
2021/12/22 06:54:32;;;;;;;;;62.00;42.25;;;;;3.57;57.98;101854.94;5013476;28;45526;-63
2021/12/22 06:56:57;;;;;;;;;41.50;26.50;;;;;3.44;58.00;101846.09;5030378;28;45460;-64
2021/12/22 06:59:22;;;;;;;;;41.00;30.00;;;;;3.57;57.97;101855.84;5032378;28;45124;-65
2021/12/22 07:01:50;;;;;;;;;56.75;37.25;;;;;3.60;57.99;101848.13;5031238;28;45623;-64
2021/12/22 07:04:15;;;;;;;;;43.00;32.75;;;;;3.64;58.09;101873.06;5030521;28;45283;-63
2021/12/22 07:06:41;;;;;;;;;41.75;36.25;;;;;3.74;58.23;101859.69;5032366;28;44919;-65
2021/12/22 07:09:07;;;;;;;;;48.00;33.75;;;;;3.80;57.91;101868.06;5021990;28;47911;-64
2021/12/22 07:11:36;;;;;;;;;41.00;30.50;;;;;3.87;57.52;101858.84;5021519;28;45280;-64
2021/12/22 07:14:03;;;;;;;;;49.25;32.75;;;;;3.94;57.72;101863.75;5014207;28;45405;-62
2021/12/22 07:16:29;;;;;;;;;62.50;42.75;;;;;3.61;57.34;101806.75;5013876;28;45521;-63
2021/12/22 07:18:54;;;;;;;;;44.00;38.50;;;;;3.60;57.49;101816.44;5028778;28;45603;-63
2021/12/22 07:21:20;;;;;;;;;55.50;37.75;;;;;3.64;57.47;101822.84;5013903;28;45594;-63
2021/12/22 07:23:45;;;;;;;;;56.25;38.25;;;;;3.84;56.81;101850.69;5017038;28;45421;-67
2021/12/22 07:26:13;;;;;;;;;59.25;38.75;;;;;3.78;57.26;101851.19;5021616;28;45544;-67
2021/12/22 07:28:45;;;;;;;;;43.50;32.50;;;;;3.65;57.25;101846.75;5030788;28;45600;-69
2021/12/22 07:31:10;;;;;;;;;52.50;34.75;;;;;3.47;57.03;101827.84;5029052;28;45315;-68
2021/12/22 07:33:36;;;;;;;;;42.00;35.00;;;;;3.54;57.45;101844.13;5028598;28;44989;-67
2021/12/22 07:36:04;;;;;;;;;37.25;31.25;;;;;3.26;57.26;101803.41;5030586;28;45336;-69
2021/12/22 07:38:57;;;;;;;;;43.00;38.25;;;;;3.58;57.69;101864.69;5024615;28;45693;-67
2021/12/22 07:41:23;;;;;;;;;38.75;33.50;;;;;3.37;57.10;101820.06;5010776;28;45300;-69
2021/12/22 07:43:48;;;;;;;;;45.50;38.00;;;;;3.69;57.43;101856.72;5015148;28;45319;-68
2021/12/22 07:46:14;;;;;;;;;38.75;33.50;;;;;3.74;57.05;101854.41;5008074;28;45614;-68
2021/12/22 07:48:39;;;;;;;;;34.50;30.75;;;;;3.71;57.54;101859.47;5012162;28;45939;-68
2021/12/22 07:51:05;;;;;;;;;42.25;31.00;;;;;3.68;57.76;101861.91;5013094;28;45421;-67
2021/12/22 07:53:30;;;;;;;;;44.75;37.25;;;;;3.72;57.53;101866.59;5013495;28;45943;-67
2021/12/22 07:55:56;;;;;;;;;39.25;33.75;;;;;3.69;57.32;101862.00;5013891;28;45349;-66
2021/12/22 07:58:22;;;;;;;;;45.50;37.25;;;;;3.63;57.45;101865.91;5012908;28;45629;-68
2021/12/22 08:00:48;;;;;;;;;39.50;33.25;;;;;3.54;57.56;101857.34;5013623;28;45608;-69
2021/12/22 08:03:13;;;;;;;;;53.00;42.00;;;;;3.56;57.95;101863.66;5013461;28;45647;-68
2021/12/22 08:05:39;;;;;;;;;51.50;39.50;;;;;3.43;58.21;101854.84;5015860;28;45548;-67
2021/12/22 08:08:05;;;;;;;;;64.50;44.50;;;;;3.27;58.36;101836.03;5017058;28;45937;-66
2021/12/22 08:10:30;;;;;;;;;50.25;42.00;;;;;3.53;58.84;101876.63;5016578;28;45482;-68
2021/12/22 08:12:56;;;;;;;;;52.25;39.25;;;;;3.56;58.11;101875.13;5016414;28;45539;-66
2021/12/22 08:15:21;;;;;;;;;48.25;36.75;;;;;3.59;58.32;101880.66;5016712;28;45394;-67
2021/12/22 08:17:47;;;;;;;;;46.50;38.25;;;;;3.54;58.38;101855.63;5016993;28;45387;-68
2021/12/22 08:20:13;;;;;;;;;55.00;35.00;;;;;3.67;58.50;101863.63;5017021;28;45479;-67
2021/12/22 08:22:38;;;;;;;;;53.00;39.75;;;;;3.57;58.31;101823.22;5016945;28;45310;-68
2021/12/22 08:25:06;;;;;;;;;43.25;33.25;;;;;3.82;57.77;101855.88;5017115;28;45353;-68
2021/12/22 08:27:31;;;;;;;;;50.50;37.25;;;;;3.65;57.50;101807.09;5016543;28;47135;-67
2021/12/22 08:29:57;;;;;;;;;46.00;39.00;;;;;3.98;57.15;101857.88;5016674;28;45320;-67
2021/12/22 08:32:22;;;;;;;;;50.25;35.00;;;;;4.00;56.83;101856.25;5016044;28;45335;-68
2021/12/22 08:34:53;;;;;;;;;50.50;39.50;;;;;3.78;56.74;101815.88;5017102;28;45376;-69
2021/12/22 08:40:04;;;;;;;;;50.25;39.75;;;;;3.72;58.43;101857.75;5016726;28;45674;-67
2021/12/22 08:42:29;;;;;;;;;51.50;38.00;;;;;3.79;58.25;101858.28;5016743;28;45570;-68
2021/12/22 08:44:54;;;;;;;;;50.25;38.75;;;;;3.93;58.13;101850.47;5016661;28;45392;-67
2021/12/22 08:47:20;;;;;;;;;37.50;31.25;;;;;3.97;57.54;101834.88;5016549;28;45589;-67
2021/12/22 08:49:46;;;;;;;;;35.75;29.50;;;;;4.10;57.68;101849.91;5016409;28;46103;-67
2021/12/22 08:52:11;;;;;;;;;58.50;40.50;;;;;4.16;56.82;101850.34;5016443;28;46024;-68
2021/12/22 08:54:37;;;;;;;;;44.75;34.75;;;;;3.89;56.68;101791.13;5014248;28;45646;-67
2021/12/22 08:57:03;;;;;;;;;51.25;35.50;;;;;3.96;55.80;101811.91;5016114;28;45500;-68
2021/12/22 08:59:29;;;;;;;;;49.50;40.25;;;;;3.95;56.31;101827.69;5016182;28;45463;-68
2021/12/22 09:01:54;;;;;;;;;43.25;36.50;;;;;3.57;56.43;101765.09;5016615;28;45568;-68
2021/12/22 09:04:20;;;;;;;;;47.75;34.50;;;;;3.71;57.05;101803.06;5016853;28;45415;-69
2021/12/22 09:06:47;;;;;;;;;45.50;36.00;;;;;3.85;57.33;101834.94;5016556;28;46104;-69
2021/12/22 09:09:13;;;;;;;;;46.50;37.00;;;;;3.86;57.20;101839.44;5016657;28;45528;-69
2021/12/22 09:11:40;;;;;;;;;52.25;41.75;;;;;3.85;56.99;101849.91;5015787;28;45490;-67
2021/12/22 09:14:06;;;;;;;;;41.00;34.00;;;;;3.86;57.16;101839.44;5016523;28;45550;-69
2021/12/22 09:16:36;;;;;;;;;54.75;38.75;;;;;3.84;57.25;101826.91;5016086;28;45861;-67
2021/12/22 09:19:03;;;;;;;;;35.00;28.25;;;;;3.91;57.36;101837.13;5015869;28;45378;-68
2021/12/22 09:21:29;;;;;;;;;47.00;38.00;;;;;3.84;57.61;101817.28;5015959;28;45335;-68
2021/12/22 09:23:55;;;;;;;;;54.75;42.75;;;;;4.06;57.29;101839.94;5016407;28;45721;-68
2021/12/22 09:26:20;;;;;;;;;54.25;37.50;;;;;3.81;57.00;101819.69;5016171;28;46278;-68
2021/12/22 09:28:45;;;;;;;;;42.50;31.25;;;;;3.69;57.67;101832.00;5016114;28;45264;-69
2021/12/22 09:31:12;;;;;;;;;54.25;37.75;;;;;3.74;57.64;101835.00;5016304;28;45332;-70
2021/12/22 09:33:38;;;;;;;;;62.00;42.00;;;;;3.56;58.03;101794.97;5015565;28;45551;-68
2021/12/22 09:36:07;;;;;;;;;58.00;42.25;;;;;3.80;57.95;101832.78;5008238;28;47442;-69
2021/12/22 09:38:32;;;;;;;;;47.00;39.00;;;;;3.78;57.68;101829.09;5015185;28;45535;-70
2021/12/22 09:41:03;;;;;;;;;52.25;39.75;;;;;3.80;58.17;101836.34;5004613;28;45265;-67
2021/12/22 09:43:28;;;;;;;;;57.75;42.00;;;;;3.64;57.77;101812.28;5013623;28;45426;-69
2021/12/22 09:46:00;;;;;;;;;50.00;38.25;;;;;3.39;57.27;101767.34;5003800;28;46378;-67
2021/12/22 09:53:44;;;;;;;;;60.00;40.50;;;;;3.79;57.41;101821.28;5007345;28;45571;-68
2021/12/22 09:56:11;;;;;;;;;44.50;38.25;;;;;3.31;57.12;101753.56;5003914;28;45492;-68
2021/12/22 09:58:40;;;;;;;;;43.75;34.50;;;;;3.63;56.98;101808.72;5009146;28;45582;-68
2021/12/22 10:01:06;;;;;;;;;53.25;38.50;;;;;3.51;56.87;101797.25;5006383;28;45421;-68
2021/12/22 10:03:31;;;;;;;;;44.25;33.50;;;;;3.88;57.04;101860.69;4998856;28;45492;-68
2021/12/22 10:05:57;;;;;;;;;44.75;35.50;;;;;3.82;57.21;101858.50;5005419;28;46308;-68
2021/12/22 10:08:24;;;;;;;;;41.50;35.75;;;;;3.75;57.61;101850.06;5007751;28;45526;-70
2021/12/22 10:11:03;;;;;;;;;48.25;39.50;;;;;3.49;57.47;101814.75;5021639;28;45510;-67
2021/12/22 10:13:30;;;;;;;;;54.00;37.50;;;;;3.66;58.00;101834.44;4999890;28;45471;-68
2021/12/22 10:15:56;;;;;;;;;46.00;40.50;;;;;3.57;57.68;101789.78;5015644;28;46581;-68
2021/12/22 10:18:28;;;;;;;;;49.25;40.25;;;;;4.04;57.34;101844.16;5019254;28;45418;-68
2021/12/22 10:21:18;;;;;;;;;46.75;34.75;;;;;4.14;57.14;101848.38;5012647;28;45525;-68
2021/12/22 10:23:50;;;;;;;;;57.50;40.25;;;;;4.20;56.47;101847.06;5014967;28;45237;-68
2021/12/22 10:26:19;;;;;;;;;27.25;20.00;;;;;4.25;56.30;101844.75;5013231;28;47285;-69
2021/12/22 10:28:44;;;;;;;;;51.75;40.25;;;;;4.05;56.67;101822.22;5013754;28;45303;-69
2021/12/22 10:31:10;;;;;;;;;58.25;43.25;;;;;4.22;56.28;101841.91;5014361;28;45520;-67
2021/12/22 10:33:39;;;;;;;;;58.00;40.25;;;;;4.30;56.71;101846.00;5014913;28;45469;-68
2021/12/22 10:36:13;;;;;;;;;74.75;55.50;;;;;4.02;56.16;101807.03;5013174;28;45544;-68
2021/12/22 10:38:39;;;;;;;;;56.00;41.50;;;;;4.26;56.68;101838.66;5029452;28;45420;-67
2021/12/22 10:41:09;;;;;;;;;56.75;45.25;;;;;4.35;55.84;101835.72;5012946;28;45508;-68
2021/12/22 10:43:41;;;;;;;;;52.50;38.00;;;;;4.29;55.71;101823.00;5014838;28;45525;-66
2021/12/22 10:46:07;;;;;;;;;60.00;39.00;;;;;4.21;55.92;101792.47;5014507;28;45321;-67
2021/12/22 10:51:32;;;;;;;;;49.50;36.75;;;;;4.49;55.53;101803.22;5013856;28;45340;-70
2021/12/22 10:54:00;;;;;;;;;62.00;44.00;;;;;4.65;55.06;101809.53;5019141;28;45453;-67
2021/12/22 10:56:36;;;;;;;;;47.25;40.00;;;;;4.32;54.66;101753.50;5011871;28;46586;-67
2021/12/22 10:59:11;;;;;;;;;50.25;37.00;;;;;4.39;55.60;101782.22;5022535;28;45511;-70
2021/12/22 11:02:06;;;;;;;;;56.25;40.75;;;;;4.39;55.66;101779.59;5014743;28;45434;-68
2021/12/22 11:04:34;;;;;;;;;50.25;41.75;;;;;4.38;55.62;101778.66;5021417;28;45348;-70
2021/12/22 11:07:13;;;;;;;;;56.25;42.50;;;;;4.38;55.51;101778.66;5018571;28;46064;-67
2021/12/22 11:09:38;;;;;;;;;55.00;41.00;;;;;4.30;55.38;101745.47;5027228;28;45553;-68
2021/12/22 11:12:06;;;;;;;;;58.50;45.00;;;;;4.30;55.11;101733.97;5014031;28;45591;-68
2021/12/22 11:14:36;;;;;;;;;53.25;40.25;;;;;4.30;55.74;101755.13;5019038;28;45391;-69
2021/12/22 11:17:10;;;;;;;;;53.75;44.00;;;;;4.43;55.73;101766.63;5028434;28;45237;-69
2021/12/22 11:19:46;;;;;;;;;72.00;48.50;;;;;4.47;55.20;101756.28;5026359;28;45284;-69
2021/12/22 11:22:14;;;;;;;;;58.75;43.75;;;;;4.56;55.38;101764.84;5023395;28;45324;-69
2021/12/22 11:24:48;;;;;;;;;63.00;45.25;;;;;4.67;55.24;101761.19;5030312;28;45351;-68
2021/12/22 11:27:23;;;;;;;;;57.75;41.25;;;;;4.52;54.57;101724.03;5030972;28;45248;-68
2021/12/22 11:29:52;;;;;;;;;59.50;43.50;;;;;4.41;54.96;101709.16;5022977;28;45491;-67
2021/12/22 11:32:20;;;;;;;;;57.00;45.50;;;;;4.48;55.41;101724.63;5026606;28;45234;-68
2021/12/22 11:34:52;;;;;;;;;65.50;52.00;;;;;4.64;55.51;101729.22;5027513;28;45686;-70
2021/12/22 11:37:19;;;;;;;;;59.00;40.75;;;;;4.61;55.37;101729.00;5018320;28;47036;-67
2021/12/22 11:39:44;;;;;;;;;67.50;49.25;;;;;4.61;54.94;101718.41;5038538;28;44902;-70